sensor_id;sensor_type;location;lat;lon;timestamp;temperature;humidity
12568;DHT22;6349;50.904;6.136;2023-06-19T00:01:22;21.40;99.90
12568;DHT22;6349;50.904;6.136;2023-06-19T00:03:24;21.40;99.90
12568;DHT22;6349;50.904;6.136;2023-06-19T00:05:28;21.30;99.90
12568;DHT22;6349;50.904;6.136;2023-06-19T00:07:30;21.40;99.90
12568;DHT22;6349;50.904;6.136;2023-06-19T00:09:32;21.40;99.90
12568;DHT22;6349;50.904;6.136;2023-06-19T00:11:34;21.30;99.90
12568;DHT22;6349;50.904;6.136;2023-06-19T00:13:36;21.30;99.90
12568;DHT22;6349;50.904;6.136;2023-06-19T00:15:37;21.40;99.90
12568;DHT22;6349;50.904;6.136;2023-06-19T00:17:38;21.30;99.90
12568;DHT22;6349;50.904;6.136;2023-06-19T00:19:40;21.40;99.90
12568;DHT22;6349;50.904;6.136;2023-06-19T00:21:43;21.30;99.90
12568;DHT22;6349;50.904;6.136;2023-06-19T00:23:45;21.30;99.90
12568;DHT22;6349;50.904;6.136;2023-06-19T00:25:46;21.40;99.90
12568;DHT22;6349;50.904;6.136;2023-06-19T00:27:48;21.40;99.90
12568;DHT22;6349;50.904;6.136;2023-06-19T00:29:51;21.40;99.90
12568;DHT22;6349;50.904;6.136;2023-06-19T00:31:53;21.50;99.90
12568;DHT22;6349;50.904;6.136;2023-06-19T00:33:56;21.40;99.90
12568;DHT22;6349;50.904;6.136;2023-06-19T00:35:58;21.50;99.90
12568;DHT22;6349;50.904;6.136;2023-06-19T00:38:00;21.50;99.90
12568;DHT22;6349;50.904;6.136;2023-06-19T00:40:02;21.50;99.90
12568;DHT22;6349;50.904;6.136;2023-06-19T00:42:04;21.40;99.90
12568;DHT22;6349;50.904;6.136;2023-06-19T00:44:05;21.50;99.90
12568;DHT22;6349;50.904;6.136;2023-06-19T00:46:07;21.50;99.90
12568;DHT22;6349;50.904;6.136;2023-06-19T00:48:09;21.50;99.90
12568;DHT22;6349;50.904;6.136;2023-06-19T00:50:12;21.60;99.90
12568;DHT22;6349;50.904;6.136;2023-06-19T00:52:13;21.60;99.90
12568;DHT22;6349;50.904;6.136;2023-06-19T00:54:17;21.50;99.90
12568;DHT22;6349;50.904;6.136;2023-06-19T00:56:19;21.50;99.90
12568;DHT22;6349;50.904;6.136;2023-06-19T00:58:22;21.40;99.90
12568;DHT22;6349;50.904;6.136;2023-06-19T01:00:24;21.40;99.90
12568;DHT22;6349;50.904;6.136;2023-06-19T01:02:26;21.40;99.90
12568;DHT22;6349;50.904;6.136;2023-06-19T01:04:27;21.40;99.90
12568;DHT22;6349;50.904;6.136;2023-06-19T01:06:40;21.30;99.90
12568;DHT22;6349;50.904;6.136;2023-06-19T01:09:10;21.30;99.90
12568;DHT22;6349;50.904;6.136;2023-06-19T01:11:17;21.30;99.90
12568;DHT22;6349;50.904;6.136;2023-06-19T01:13:45;21.30;99.90
12568;DHT22;6349;50.904;6.136;2023-06-19T01:15:48;21.30;99.90
12568;DHT22;6349;50.904;6.136;2023-06-19T01:17:52;21.30;99.90
12568;DHT22;6349;50.904;6.136;2023-06-19T01:19:55;21.30;99.90
12568;DHT22;6349;50.904;6.136;2023-06-19T01:22:04;21.40;99.90
12568;DHT22;6349;50.904;6.136;2023-06-19T01:24:06;21.40;99.90
12568;DHT22;6349;50.904;6.136;2023-06-19T01:26:09;21.50;99.90
12568;DHT22;6349;50.904;6.136;2023-06-19T01:28:11;21.50;99.90
12568;DHT22;6349;50.904;6.136;2023-06-19T01:30:14;21.60;99.90
12568;DHT22;6349;50.904;6.136;2023-06-19T01:35:05;21.70;99.90
12568;DHT22;6349;50.904;6.136;2023-06-19T01:37:10;21.80;99.90
12568;DHT22;6349;50.904;6.136;2023-06-19T01:39:13;21.80;99.90
12568;DHT22;6349;50.904;6.136;2023-06-19T01:41:17;21.90;99.90
12568;DHT22;6349;50.904;6.136;2023-06-19T01:43:20;21.90;99.90
12568;DHT22;6349;50.904;6.136;2023-06-19T01:45:23;21.80;99.90
12568;DHT22;6349;50.904;6.136;2023-06-19T01:47:25;21.90;99.90
12568;DHT22;6349;50.904;6.136;2023-06-19T01:49:25;21.90;99.90
12568;DHT22;6349;50.904;6.136;2023-06-19T01:51:27;21.80;99.90
12568;DHT22;6349;50.904;6.136;2023-06-19T01:53:32;21.80;99.90
12568;DHT22;6349;50.904;6.136;2023-06-19T01:55:34;21.80;99.90
12568;DHT22;6349;50.904;6.136;2023-06-19T01:57:36;21.80;99.90
12568;DHT22;6349;50.904;6.136;2023-06-19T01:59:39;21.80;99.90
12568;DHT22;6349;50.904;6.136;2023-06-19T02:01:41;21.70;99.90
12568;DHT22;6349;50.904;6.136;2023-06-19T02:03:42;21.70;99.90
12568;DHT22;6349;50.904;6.136;2023-06-19T02:05:44;21.70;99.90
12568;DHT22;6349;50.904;6.136;2023-06-19T02:07:46;21.60;99.90
12568;DHT22;6349;50.904;6.136;2023-06-19T02:09:48;21.60;99.90
12568;DHT22;6349;50.904;6.136;2023-06-19T02:11:48;21.60;99.90
12568;DHT22;6349;50.904;6.136;2023-06-19T02:13:50;21.50;99.90
12568;DHT22;6349;50.904;6.136;2023-06-19T02:15:52;21.50;99.90
12568;DHT22;6349;50.904;6.136;2023-06-19T02:17:55;21.40;99.90
12568;DHT22;6349;50.904;6.136;2023-06-19T02:20:00;21.40;99.90
12568;DHT22;6349;50.904;6.136;2023-06-19T02:22:02;21.30;99.90
12568;DHT22;6349;50.904;6.136;2023-06-19T02:24:04;21.20;99.90
12568;DHT22;6349;50.904;6.136;2023-06-19T02:26:06;21.20;99.90
12568;DHT22;6349;50.904;6.136;2023-06-19T02:28:08;21.20;99.90
12568;DHT22;6349;50.904;6.136;2023-06-19T02:30:13;21.20;99.90
12568;DHT22;6349;50.904;6.136;2023-06-19T02:32:15;21.10;99.90
12568;DHT22;6349;50.904;6.136;2023-06-19T02:34:16;21.10;99.90
12568;DHT22;6349;50.904;6.136;2023-06-19T02:36:18;21.00;99.90
12568;DHT22;6349;50.904;6.136;2023-06-19T02:38:22;21.00;99.90
12568;DHT22;6349;50.904;6.136;2023-06-19T02:40:25;21.00;99.90
12568;DHT22;6349;50.904;6.136;2023-06-19T02:42:27;21.00;99.90
12568;DHT22;6349;50.904;6.136;2023-06-19T02:44:29;21.00;99.90
12568;DHT22;6349;50.904;6.136;2023-06-19T02:46:30;21.00;99.90
12568;DHT22;6349;50.904;6.136;2023-06-19T02:48:32;21.00;99.90
12568;DHT22;6349;50.904;6.136;2023-06-19T02:50:33;20.90;99.90
12568;DHT22;6349;50.904;6.136;2023-06-19T02:52:34;20.90;99.90
12568;DHT22;6349;50.904;6.136;2023-06-19T02:54:36;20.90;99.90
12568;DHT22;6349;50.904;6.136;2023-06-19T02:56:38;21.00;99.90
12568;DHT22;6349;50.904;6.136;2023-06-19T02:58:41;20.90;99.90
12568;DHT22;6349;50.904;6.136;2023-06-19T03:00:43;20.90;99.90
12568;DHT22;6349;50.904;6.136;2023-06-19T03:02:45;20.90;99.90
12568;DHT22;6349;50.904;6.136;2023-06-19T03:04:51;20.90;99.90
12568;DHT22;6349;50.904;6.136;2023-06-19T03:06:53;20.90;99.90
12568;DHT22;6349;50.904;6.136;2023-06-19T03:08:56;21.00;99.90
12568;DHT22;6349;50.904;6.136;2023-06-19T03:10:57;20.90;99.90
12568;DHT22;6349;50.904;6.136;2023-06-19T03:12:59;21.00;99.90
12568;DHT22;6349;50.904;6.136;2023-06-19T03:15:00;21.00;99.90
12568;DHT22;6349;50.904;6.136;2023-06-19T03:17:03;20.90;99.90
12568;DHT22;6349;50.904;6.136;2023-06-19T03:19:04;20.90;99.90
12568;DHT22;6349;50.904;6.136;2023-06-19T03:21:06;20.80;99.90
12568;DHT22;6349;50.904;6.136;2023-06-19T03:23:08;20.80;99.90
12568;DHT22;6349;50.904;6.136;2023-06-19T03:25:10;20.80;99.90
12568;DHT22;6349;50.904;6.136;2023-06-19T03:27:11;20.80;99.90
12568;DHT22;6349;50.904;6.136;2023-06-19T03:29:13;20.90;99.90
12568;DHT22;6349;50.904;6.136;2023-06-19T03:31:15;20.90;99.90
12568;DHT22;6349;50.904;6.136;2023-06-19T03:33:17;20.90;99.90
12568;DHT22;6349;50.904;6.136;2023-06-19T03:35:19;20.90;99.90
12568;DHT22;6349;50.904;6.136;2023-06-19T03:37:20;20.80;99.90
12568;DHT22;6349;50.904;6.136;2023-06-19T03:39:22;20.80;99.90
12568;DHT22;6349;50.904;6.136;2023-06-19T03:41:24;20.80;99.90
12568;DHT22;6349;50.904;6.136;2023-06-19T03:43:26;20.80;99.90
12568;DHT22;6349;50.904;6.136;2023-06-19T03:45:28;20.80;99.90
12568;DHT22;6349;50.904;6.136;2023-06-19T03:47:31;20.80;99.90
12568;DHT22;6349;50.904;6.136;2023-06-19T03:49:33;20.80;99.90
12568;DHT22;6349;50.904;6.136;2023-06-19T03:51:35;20.80;99.90
12568;DHT22;6349;50.904;6.136;2023-06-19T03:53:39;20.80;99.90
12568;DHT22;6349;50.904;6.136;2023-06-19T03:55:41;20.80;99.90
12568;DHT22;6349;50.904;6.136;2023-06-19T03:57:42;20.80;99.90
12568;DHT22;6349;50.904;6.136;2023-06-19T03:59:44;20.70;99.90
12568;DHT22;6349;50.904;6.136;2023-06-19T04:01:46;20.80;99.90
12568;DHT22;6349;50.904;6.136;2023-06-19T04:03:47;20.80;99.90
12568;DHT22;6349;50.904;6.136;2023-06-19T04:05:49;20.70;99.90
12568;DHT22;6349;50.904;6.136;2023-06-19T04:07:52;20.70;99.90
12568;DHT22;6349;50.904;6.136;2023-06-19T04:09:57;20.70;99.90
12568;DHT22;6349;50.904;6.136;2023-06-19T04:11:59;20.70;99.90
12568;DHT22;6349;50.904;6.136;2023-06-19T04:14:01;20.60;99.90
12568;DHT22;6349;50.904;6.136;2023-06-19T04:16:03;20.60;99.90
12568;DHT22;6349;50.904;6.136;2023-06-19T04:18:05;20.60;99.90
12568;DHT22;6349;50.904;6.136;2023-06-19T04:20:07;20.50;99.90
12568;DHT22;6349;50.904;6.136;2023-06-19T04:22:12;20.60;99.90
12568;DHT22;6349;50.904;6.136;2023-06-19T04:24:16;20.60;99.90
12568;DHT22;6349;50.904;6.136;2023-06-19T04:26:18;20.50;99.90
12568;DHT22;6349;50.904;6.136;2023-06-19T04:28:23;20.40;99.90
12568;DHT22;6349;50.904;6.136;2023-06-19T04:30:25;20.30;99.90
12568;DHT22;6349;50.904;6.136;2023-06-19T04:32:27;20.20;99.90
12568;DHT22;6349;50.904;6.136;2023-06-19T04:34:29;20.20;99.90
12568;DHT22;6349;50.904;6.136;2023-06-19T04:36:31;20.10;99.90
12568;DHT22;6349;50.904;6.136;2023-06-19T04:38:33;20.10;99.90
12568;DHT22;6349;50.904;6.136;2023-06-19T04:40:35;20.10;99.90
12568;DHT22;6349;50.904;6.136;2023-06-19T04:42:37;20.00;99.90
12568;DHT22;6349;50.904;6.136;2023-06-19T04:44:40;20.00;99.90
12568;DHT22;6349;50.904;6.136;2023-06-19T04:46:43;20.00;99.90
12568;DHT22;6349;50.904;6.136;2023-06-19T04:48:49;20.10;99.90
12568;DHT22;6349;50.904;6.136;2023-06-19T04:50:52;20.00;99.90
12568;DHT22;6349;50.904;6.136;2023-06-19T04:52:54;20.10;99.90
12568;DHT22;6349;50.904;6.136;2023-06-19T04:54:56;20.10;99.90
12568;DHT22;6349;50.904;6.136;2023-06-19T04:56:58;20.10;99.90
12568;DHT22;6349;50.904;6.136;2023-06-19T04:58:59;20.10;99.90
12568;DHT22;6349;50.904;6.136;2023-06-19T05:01:02;20.10;99.90
12568;DHT22;6349;50.904;6.136;2023-06-19T05:03:04;20.10;99.90
12568;DHT22;6349;50.904;6.136;2023-06-19T05:05:07;20.20;99.90
12568;DHT22;6349;50.904;6.136;2023-06-19T05:07:09;20.20;99.90
12568;DHT22;6349;50.904;6.136;2023-06-19T05:09:12;20.30;99.90
12568;DHT22;6349;50.904;6.136;2023-06-19T05:11:14;20.40;99.90
12568;DHT22;6349;50.904;6.136;2023-06-19T05:13:16;20.40;99.90
12568;DHT22;6349;50.904;6.136;2023-06-19T05:15:18;20.40;99.90
12568;DHT22;6349;50.904;6.136;2023-06-19T05:17:20;20.50;99.90
12568;DHT22;6349;50.904;6.136;2023-06-19T05:19:22;20.60;99.90
12568;DHT22;6349;50.904;6.136;2023-06-19T05:21:24;20.70;99.90
12568;DHT22;6349;50.904;6.136;2023-06-19T05:23:25;20.70;99.90
12568;DHT22;6349;50.904;6.136;2023-06-19T05:25:27;20.70;99.90
12568;DHT22;6349;50.904;6.136;2023-06-19T05:27:29;20.80;99.90
12568;DHT22;6349;50.904;6.136;2023-06-19T05:29:32;20.80;99.90
12568;DHT22;6349;50.904;6.136;2023-06-19T05:31:33;20.80;99.90
12568;DHT22;6349;50.904;6.136;2023-06-19T05:33:36;20.90;99.90
12568;DHT22;6349;50.904;6.136;2023-06-19T05:35:37;20.80;99.90
12568;DHT22;6349;50.904;6.136;2023-06-19T05:37:39;20.80;99.90
12568;DHT22;6349;50.904;6.136;2023-06-19T05:39:44;20.80;99.90
12568;DHT22;6349;50.904;6.136;2023-06-19T05:41:46;20.80;99.90
12568;DHT22;6349;50.904;6.136;2023-06-19T05:43:48;20.80;99.90
12568;DHT22;6349;50.904;6.136;2023-06-19T05:45:50;20.70;99.90
12568;DHT22;6349;50.904;6.136;2023-06-19T05:47:55;20.70;99.90
12568;DHT22;6349;50.904;6.136;2023-06-19T05:50:00;20.70;99.90
12568;DHT22;6349;50.904;6.136;2023-06-19T05:52:01;20.70;99.90
12568;DHT22;6349;50.904;6.136;2023-06-19T05:54:03;20.80;99.90
12568;DHT22;6349;50.904;6.136;2023-06-19T05:56:06;20.80;99.90
12568;DHT22;6349;50.904;6.136;2023-06-19T05:58:07;20.80;99.90
12568;DHT22;6349;50.904;6.136;2023-06-19T06:00:09;20.80;99.90
12568;DHT22;6349;50.904;6.136;2023-06-19T06:02:19;20.80;99.90
12568;DHT22;6349;50.904;6.136;2023-06-19T06:04:22;20.80;99.90
12568;DHT22;6349;50.904;6.136;2023-06-19T06:06:24;20.90;99.90
12568;DHT22;6349;50.904;6.136;2023-06-19T06:08:25;20.90;99.90
12568;DHT22;6349;50.904;6.136;2023-06-19T06:10:27;20.90;99.90
12568;DHT22;6349;50.904;6.136;2023-06-19T06:12:33;20.90;99.90
12568;DHT22;6349;50.904;6.136;2023-06-19T06:14:33;20.90;99.90
12568;DHT22;6349;50.904;6.136;2023-06-19T06:16:35;20.90;99.90
12568;DHT22;6349;50.904;6.136;2023-06-19T06:18:37;20.90;99.90
12568;DHT22;6349;50.904;6.136;2023-06-19T06:20:38;20.80;99.90
12568;DHT22;6349;50.904;6.136;2023-06-19T06:22:40;20.90;99.90
12568;DHT22;6349;50.904;6.136;2023-06-19T06:24:42;20.80;99.90
12568;DHT22;6349;50.904;6.136;2023-06-19T06:26:44;20.80;99.90
12568;DHT22;6349;50.904;6.136;2023-06-19T06:28:46;20.80;99.90
12568;DHT22;6349;50.904;6.136;2023-06-19T06:30:48;20.70;99.90
12568;DHT22;6349;50.904;6.136;2023-06-19T06:32:50;20.70;99.90
12568;DHT22;6349;50.904;6.136;2023-06-19T06:34:53;20.60;99.90
12568;DHT22;6349;50.904;6.136;2023-06-19T06:36:55;20.60;99.90
12568;DHT22;6349;50.904;6.136;2023-06-19T06:38:57;20.60;99.90
12568;DHT22;6349;50.904;6.136;2023-06-19T06:41:00;20.60;99.90
12568;DHT22;6349;50.904;6.136;2023-06-19T06:43:02;20.60;99.90
12568;DHT22;6349;50.904;6.136;2023-06-19T06:45:05;20.60;99.90
12568;DHT22;6349;50.904;6.136;2023-06-19T06:47:07;20.60;99.90
12568;DHT22;6349;50.904;6.136;2023-06-19T06:49:09;20.60;99.90
12568;DHT22;6349;50.904;6.136;2023-06-19T06:51:11;20.60;99.90
12568;DHT22;6349;50.904;6.136;2023-06-19T06:53:12;20.70;99.90
12568;DHT22;6349;50.904;6.136;2023-06-19T06:55:14;20.70;99.90
12568;DHT22;6349;50.904;6.136;2023-06-19T06:57:16;20.70;99.90
12568;DHT22;6349;50.904;6.136;2023-06-19T06:59:18;20.80;99.90
12568;DHT22;6349;50.904;6.136;2023-06-19T07:01:20;20.90;99.90
12568;DHT22;6349;50.904;6.136;2023-06-19T07:03:23;21.00;99.90
12568;DHT22;6349;50.904;6.136;2023-06-19T07:05:24;21.10;99.90
12568;DHT22;6349;50.904;6.136;2023-06-19T07:07:27;21.20;99.90
12568;DHT22;6349;50.904;6.136;2023-06-19T07:09:30;21.30;99.90
12568;DHT22;6349;50.904;6.136;2023-06-19T07:11:31;21.30;99.90
12568;DHT22;6349;50.904;6.136;2023-06-19T07:13:33;21.30;99.90
12568;DHT22;6349;50.904;6.136;2023-06-19T07:15:35;21.30;99.90
12568;DHT22;6349;50.904;6.136;2023-06-19T07:17:37;21.30;99.90
12568;DHT22;6349;50.904;6.136;2023-06-19T07:19:39;21.30;99.90
12568;DHT22;6349;50.904;6.136;2023-06-19T07:21:41;21.20;99.90
12568;DHT22;6349;50.904;6.136;2023-06-19T07:23:45;21.10;99.90
12568;DHT22;6349;50.904;6.136;2023-06-19T07:25:49;21.10;99.90
12568;DHT22;6349;50.904;6.136;2023-06-19T07:27:54;21.20;99.90
12568;DHT22;6349;50.904;6.136;2023-06-19T07:29:56;21.00;99.90
12568;DHT22;6349;50.904;6.136;2023-06-19T07:31:58;21.00;99.90
12568;DHT22;6349;50.904;6.136;2023-06-19T07:34:00;21.20;99.90
12568;DHT22;6349;50.904;6.136;2023-06-19T07:36:02;21.10;99.90
12568;DHT22;6349;50.904;6.136;2023-06-19T07:38:14;21.10;99.90
12568;DHT22;6349;50.904;6.136;2023-06-19T07:40:16;21.20;99.90
12568;DHT22;6349;50.904;6.136;2023-06-19T07:42:18;21.30;99.90
12568;DHT22;6349;50.904;6.136;2023-06-19T07:44:20;21.40;99.90
12568;DHT22;6349;50.904;6.136;2023-06-19T07:46:22;21.50;99.90
12568;DHT22;6349;50.904;6.136;2023-06-19T07:48:24;21.60;99.90
12568;DHT22;6349;50.904;6.136;2023-06-19T07:50:26;21.60;99.90
12568;DHT22;6349;50.904;6.136;2023-06-19T07:52:28;21.60;99.90
12568;DHT22;6349;50.904;6.136;2023-06-19T07:54:33;21.60;99.90
12568;DHT22;6349;50.904;6.136;2023-06-19T07:56:35;21.70;99.90
12568;DHT22;6349;50.904;6.136;2023-06-19T07:58:37;21.70;99.90
12568;DHT22;6349;50.904;6.136;2023-06-19T08:00:39;21.70;99.90
12568;DHT22;6349;50.904;6.136;2023-06-19T08:02:42;21.80;99.90
12568;DHT22;6349;50.904;6.136;2023-06-19T08:04:44;21.80;99.90
12568;DHT22;6349;50.904;6.136;2023-06-19T08:06:45;22.00;99.90
12568;DHT22;6349;50.904;6.136;2023-06-19T08:08:46;22.00;99.90
12568;DHT22;6349;50.904;6.136;2023-06-19T08:10:48;22.10;99.90
12568;DHT22;6349;50.904;6.136;2023-06-19T08:12:50;22.20;99.90
12568;DHT22;6349;50.904;6.136;2023-06-19T08:14:52;22.20;99.90
12568;DHT22;6349;50.904;6.136;2023-06-19T08:16:54;22.20;99.90
12568;DHT22;6349;50.904;6.136;2023-06-19T08:18:56;22.20;99.90
12568;DHT22;6349;50.904;6.136;2023-06-19T08:20:59;22.10;99.90
12568;DHT22;6349;50.904;6.136;2023-06-19T08:23:00;22.10;99.90
12568;DHT22;6349;50.904;6.136;2023-06-19T08:25:09;22.00;99.90
12568;DHT22;6349;50.904;6.136;2023-06-19T08:27:10;21.90;99.90
12568;DHT22;6349;50.904;6.136;2023-06-19T08:29:12;21.90;99.90
12568;DHT22;6349;50.904;6.136;2023-06-19T08:31:14;21.90;99.90
12568;DHT22;6349;50.904;6.136;2023-06-19T08:33:16;21.90;99.90
12568;DHT22;6349;50.904;6.136;2023-06-19T08:35:16;21.90;99.90
12568;DHT22;6349;50.904;6.136;2023-06-19T08:37:18;21.80;99.90
12568;DHT22;6349;50.904;6.136;2023-06-19T08:39:20;21.90;99.90
12568;DHT22;6349;50.904;6.136;2023-06-19T08:41:22;22.00;99.90
12568;DHT22;6349;50.904;6.136;2023-06-19T08:43:25;22.00;99.90
12568;DHT22;6349;50.904;6.136;2023-06-19T08:45:26;22.10;99.90
12568;DHT22;6349;50.904;6.136;2023-06-19T08:47:35;22.10;99.90
12568;DHT22;6349;50.904;6.136;2023-06-19T08:49:37;22.10;99.90
12568;DHT22;6349;50.904;6.136;2023-06-19T08:51:40;22.00;99.90
12568;DHT22;6349;50.904;6.136;2023-06-19T08:53:49;21.90;99.90
12568;DHT22;6349;50.904;6.136;2023-06-19T08:55:55;22.00;99.90
12568;DHT22;6349;50.904;6.136;2023-06-19T08:57:59;22.10;99.90
12568;DHT22;6349;50.904;6.136;2023-06-19T09:00:01;22.30;99.90
12568;DHT22;6349;50.904;6.136;2023-06-19T09:02:03;22.40;99.90
12568;DHT22;6349;50.904;6.136;2023-06-19T09:04:12;22.40;99.90
12568;DHT22;6349;50.904;6.136;2023-06-19T09:06:17;22.40;99.90
12568;DHT22;6349;50.904;6.136;2023-06-19T09:08:20;22.40;99.90
12568;DHT22;6349;50.904;6.136;2023-06-19T09:10:23;22.40;99.90
12568;DHT22;6349;50.904;6.136;2023-06-19T09:12:26;22.50;99.90
12568;DHT22;6349;50.904;6.136;2023-06-19T09:14:36;22.60;99.90
12568;DHT22;6349;50.904;6.136;2023-06-19T09:16:39;22.60;99.90
12568;DHT22;6349;50.904;6.136;2023-06-19T09:18:46;22.80;99.90
12568;DHT22;6349;50.904;6.136;2023-06-19T09:20:52;22.80;99.90
12568;DHT22;6349;50.904;6.136;2023-06-19T09:22:58;23.00;99.90
12568;DHT22;6349;50.904;6.136;2023-06-19T09:25:03;22.90;99.90
12568;DHT22;6349;50.904;6.136;2023-06-19T09:27:15;22.90;99.90
12568;DHT22;6349;50.904;6.136;2023-06-19T09:29:19;23.00;99.90
12568;DHT22;6349;50.904;6.136;2023-06-19T09:31:32;23.10;99.90
12568;DHT22;6349;50.904;6.136;2023-06-19T09:33:35;23.10;99.90
12568;DHT22;6349;50.904;6.136;2023-06-19T09:35:37;23.10;99.90
12568;DHT22;6349;50.904;6.136;2023-06-19T09:37:40;23.10;99.90
12568;DHT22;6349;50.904;6.136;2023-06-19T09:39:42;23.20;99.90
12568;DHT22;6349;50.904;6.136;2023-06-19T09:41:46;23.30;99.90
12568;DHT22;6349;50.904;6.136;2023-06-19T09:43:49;23.40;99.90
12568;DHT22;6349;50.904;6.136;2023-06-19T09:45:55;23.50;99.90
12568;DHT22;6349;50.904;6.136;2023-06-19T09:47:56;23.40;99.90
12568;DHT22;6349;50.904;6.136;2023-06-19T09:49:59;23.50;99.90
12568;DHT22;6349;50.904;6.136;2023-06-19T09:52:01;23.60;99.90
12568;DHT22;6349;50.904;6.136;2023-06-19T09:54:05;23.60;99.90
12568;DHT22;6349;50.904;6.136;2023-06-19T09:56:07;23.60;99.90
12568;DHT22;6349;50.904;6.136;2023-06-19T09:58:10;23.70;99.90
12568;DHT22;6349;50.904;6.136;2023-06-19T10:00:11;23.70;99.90
12568;DHT22;6349;50.904;6.136;2023-06-19T10:02:17;23.70;99.90
12568;DHT22;6349;50.904;6.136;2023-06-19T10:04:17;23.70;99.90
12568;DHT22;6349;50.904;6.136;2023-06-19T10:06:22;23.80;99.90
12568;DHT22;6349;50.904;6.136;2023-06-19T10:08:53;23.80;99.90
12568;DHT22;6349;50.904;6.136;2023-06-19T10:10:55;23.90;99.90
12568;DHT22;6349;50.904;6.136;2023-06-19T10:13:21;24.00;99.90
12568;DHT22;6349;50.904;6.136;2023-06-19T10:15:26;23.90;99.90
12568;DHT22;6349;50.904;6.136;2023-06-19T10:17:30;23.90;99.90
12568;DHT22;6349;50.904;6.136;2023-06-19T10:19:32;24.00;99.90
12568;DHT22;6349;50.904;6.136;2023-06-19T10:21:47;24.00;99.90
12568;DHT22;6349;50.904;6.136;2023-06-19T10:23:55;24.10;99.90
12568;DHT22;6349;50.904;6.136;2023-06-19T10:25:59;24.10;99.90
12568;DHT22;6349;50.904;6.136;2023-06-19T10:28:02;24.10;99.90
12568;DHT22;6349;50.904;6.136;2023-06-19T10:30:16;24.10;99.90
12568;DHT22;6349;50.904;6.136;2023-06-19T10:32:20;24.20;99.90
12568;DHT22;6349;50.904;6.136;2023-06-19T10:34:23;24.20;99.90
12568;DHT22;6349;50.904;6.136;2023-06-19T10:36:34;24.30;99.90
12568;DHT22;6349;50.904;6.136;2023-06-19T10:38:34;24.50;99.90
12568;DHT22;6349;50.904;6.136;2023-06-19T10:40:37;24.50;99.90
12568;DHT22;6349;50.904;6.136;2023-06-19T10:42:39;24.50;99.90
12568;DHT22;6349;50.904;6.136;2023-06-19T10:44:42;24.50;99.90
12568;DHT22;6349;50.904;6.136;2023-06-19T10:46:44;24.50;99.90
12568;DHT22;6349;50.904;6.136;2023-06-19T10:48:44;24.40;99.90
12568;DHT22;6349;50.904;6.136;2023-06-19T10:50:47;24.40;99.90
12568;DHT22;6349;50.904;6.136;2023-06-19T10:52:53;24.60;99.90
12568;DHT22;6349;50.904;6.136;2023-06-19T10:54:57;24.60;99.90
12568;DHT22;6349;50.904;6.136;2023-06-19T10:57:04;24.70;99.90
12568;DHT22;6349;50.904;6.136;2023-06-19T10:59:07;24.70;99.90
12568;DHT22;6349;50.904;6.136;2023-06-19T11:01:16;24.90;99.90
12568;DHT22;6349;50.904;6.136;2023-06-19T11:03:20;25.00;99.90
12568;DHT22;6349;50.904;6.136;2023-06-19T11:05:25;25.10;99.90
12568;DHT22;6349;50.904;6.136;2023-06-19T11:07:27;25.40;99.90
12568;DHT22;6349;50.904;6.136;2023-06-19T11:09:30;25.40;99.90
12568;DHT22;6349;50.904;6.136;2023-06-19T11:11:48;25.30;99.90
12568;DHT22;6349;50.904;6.136;2023-06-19T11:13:50;25.40;99.90
12568;DHT22;6349;50.904;6.136;2023-06-19T11:15:51;25.60;99.90
12568;DHT22;6349;50.904;6.136;2023-06-19T11:17:53;25.70;99.90
12568;DHT22;6349;50.904;6.136;2023-06-19T11:19:57;25.70;99.90
12568;DHT22;6349;50.904;6.136;2023-06-19T11:21:59;25.80;99.90
12568;DHT22;6349;50.904;6.136;2023-06-19T11:24:12;25.90;99.90
12568;DHT22;6349;50.904;6.136;2023-06-19T11:26:13;25.90;99.90
12568;DHT22;6349;50.904;6.136;2023-06-19T11:28:15;25.80;99.90
12568;DHT22;6349;50.904;6.136;2023-06-19T11:30:33;25.80;99.90
12568;DHT22;6349;50.904;6.136;2023-06-19T11:32:38;25.80;99.90
12568;DHT22;6349;50.904;6.136;2023-06-19T11:34:46;25.70;99.90
12568;DHT22;6349;50.904;6.136;2023-06-19T11:36:48;25.70;99.90
12568;DHT22;6349;50.904;6.136;2023-06-19T11:38:51;25.70;99.90
12568;DHT22;6349;50.904;6.136;2023-06-19T11:40:56;25.80;99.90
12568;DHT22;6349;50.904;6.136;2023-06-19T11:42:58;25.80;99.90
12568;DHT22;6349;50.904;6.136;2023-06-19T11:45:03;25.90;99.90
12568;DHT22;6349;50.904;6.136;2023-06-19T11:47:10;26.10;99.90
12568;DHT22;6349;50.904;6.136;2023-06-19T11:49:16;26.10;99.90
12568;DHT22;6349;50.904;6.136;2023-06-19T11:51:19;26.20;99.90
12568;DHT22;6349;50.904;6.136;2023-06-19T11:53:22;26.20;99.90
12568;DHT22;6349;50.904;6.136;2023-06-19T11:55:24;26.10;99.90
12568;DHT22;6349;50.904;6.136;2023-06-19T11:57:29;26.10;99.90
12568;DHT22;6349;50.904;6.136;2023-06-19T11:59:31;26.10;99.90
12568;DHT22;6349;50.904;6.136;2023-06-19T12:01:33;26.10;99.90
12568;DHT22;6349;50.904;6.136;2023-06-19T12:03:35;26.10;99.90
12568;DHT22;6349;50.904;6.136;2023-06-19T12:05:37;26.10;99.90
12568;DHT22;6349;50.904;6.136;2023-06-19T12:07:39;26.10;99.90
12568;DHT22;6349;50.904;6.136;2023-06-19T12:09:41;26.10;99.90
12568;DHT22;6349;50.904;6.136;2023-06-19T12:11:44;25.90;99.90
12568;DHT22;6349;50.904;6.136;2023-06-19T12:13:46;25.90;99.90
12568;DHT22;6349;50.904;6.136;2023-06-19T12:15:49;25.90;99.90
12568;DHT22;6349;50.904;6.136;2023-06-19T12:17:50;25.90;99.90
12568;DHT22;6349;50.904;6.136;2023-06-19T12:19:51;26.00;99.90
12568;DHT22;6349;50.904;6.136;2023-06-19T12:21:54;26.10;99.90
12568;DHT22;6349;50.904;6.136;2023-06-19T12:23:56;26.00;99.90
12568;DHT22;6349;50.904;6.136;2023-06-19T12:25:58;26.10;99.90
12568;DHT22;6349;50.904;6.136;2023-06-19T12:28:00;26.20;99.90
12568;DHT22;6349;50.904;6.136;2023-06-19T12:30:02;26.40;99.90
12568;DHT22;6349;50.904;6.136;2023-06-19T12:32:04;26.40;99.90
12568;DHT22;6349;50.904;6.136;2023-06-19T12:34:07;26.50;99.90
12568;DHT22;6349;50.904;6.136;2023-06-19T12:36:10;26.60;99.90
12568;DHT22;6349;50.904;6.136;2023-06-19T12:38:14;26.60;99.90
12568;DHT22;6349;50.904;6.136;2023-06-19T12:40:15;26.70;99.90
12568;DHT22;6349;50.904;6.136;2023-06-19T12:42:18;26.70;99.90
12568;DHT22;6349;50.904;6.136;2023-06-19T12:44:21;26.70;99.90
12568;DHT22;6349;50.904;6.136;2023-06-19T12:46:22;26.80;99.90
12568;DHT22;6349;50.904;6.136;2023-06-19T12:48:23;26.90;99.90
12568;DHT22;6349;50.904;6.136;2023-06-19T12:50:25;27.00;99.90
12568;DHT22;6349;50.904;6.136;2023-06-19T12:52:26;27.00;99.90
12568;DHT22;6349;50.904;6.136;2023-06-19T12:54:28;27.10;99.90
12568;DHT22;6349;50.904;6.136;2023-06-19T12:56:30;27.20;99.90
12568;DHT22;6349;50.904;6.136;2023-06-19T12:58:30;27.20;99.90
12568;DHT22;6349;50.904;6.136;2023-06-19T13:00:31;27.30;99.90
12568;DHT22;6349;50.904;6.136;2023-06-19T13:02:32;27.30;99.90
12568;DHT22;6349;50.904;6.136;2023-06-19T13:04:32;27.20;99.90
12568;DHT22;6349;50.904;6.136;2023-06-19T13:06:36;27.10;99.90
12568;DHT22;6349;50.904;6.136;2023-06-19T13:08:36;27.20;99.90
12568;DHT22;6349;50.904;6.136;2023-06-19T13:10:38;27.30;99.90
12568;DHT22;6349;50.904;6.136;2023-06-19T13:12:42;27.40;99.90